Stacy, Virginia
Current Conditions -  °F | °C
As of 10:55 AM on Friday 19 Dec 2014 (Local Time) from KJFZ Reporting Station
Clear Clear  
Wind Chill: 28°   Ceiling: Unl
Heat Index: 32°   Visibility: 10mi
Dew Point: 21°   Wind: 5mph
Humidity: 63%   Direction: 310°NW
Pressure: 30.16"   Gusts: NA
Location:  37.3014°N, 82.1027°W
Report Text: KJFZ 191555Z AUTO 31004KT 10SM CLR 00/M06 A3016 RMK AO2 T00011062
Loading
Personal Weather Stations






























Interactive Weather Map New forecast layout! Learn more

10-Day Weather Forecast

Advertisements
Track Severe Weather on mobile